Decoded Metar for KMSS (MASSENA in NY, USA) (IATA:MSS) | Meteo·Mobile Aviation Weather
aviador You're here:

KMSS Decoded Metar

MASSENA in NY, USA
Report Time2019-10-18 13:53:00
UTC Time2019-10-18 14:18:08
Flight Rules mvfr MVFR
Wind280° at 15 Gusting to 20 kt
W.Decomp.*RWY 27: 13.7 kt HW 6.1 kt RCW
RWY 23: 6.6 kt HW 13.5 kt RCW
Visibility9999 m
Phenomena:N/A
Clouds:Overcast 025 Hf
Expected CloudBase > 1,600 ft AGL from Temp-Dew spread
Ceiling2,500 ft
Temp07°C (ISA -8)
Dew Point03°C (76% RH)
AAT0.1°C
QNH1010 hPa
Density Alt-486 ft
Elevation217 ft
Report Wrong Elevation
Raw Report
KMSS 181353Z AUTO 28015G20KT 10SM OVC025 07/03 A2984 RMK AO2
SLP109 T00720028=

Extra information for KMSS:More info

Metar Taf Metar & Taf Last 4 Metars F.Rules Stats Wind Profile Meteogram Temp Stats Airport Information Weather charts Add Link Nearby VenuesMetar ALERT Operation Metar Decoded Social comments

AIRNAV info for KMSS